createdAt,value
2022-10-05T00:00:07.153Z,4172.6
2022-10-05T00:05:51.266Z,4171.4
2022-10-05T00:11:47.853Z,4168.6
2022-10-05T00:17:20.641Z,4171.8
2022-10-05T00:22:58.179Z,4171.3
2022-10-05T00:28:33.782Z,4172.6
2022-10-05T00:34:37.178Z,4170.1
2022-10-05T00:40:14.407Z,4169.7
2022-10-05T00:46:05.008Z,4171.6
2022-10-05T00:51:51.062Z,4169.7
2022-10-05T00:57:26.017Z,4172.1
2022-10-05T01:03:14.728Z,4168.4
2022-10-05T01:09:16.523Z,4168.4
2022-10-05T01:15:06.380Z,4164.9
2022-10-05T01:20:45.875Z,4168.2
2022-10-05T01:26:22.703Z,4165.6
2022-10-05T01:31:58.799Z,4165.4
2022-10-05T01:37:34.929Z,4167.7
2022-10-05T01:43:20.544Z,4166.2
2022-10-05T01:49:03.025Z,4166.6
2022-10-05T01:54:46.797Z,4165.4
2022-10-05T02:00:34.472Z,4163.5
2022-10-05T02:06:42.166Z,4164.7
2022-10-05T02:12:43.335Z,4164.4
2022-10-05T02:18:37.430Z,4163.7
2022-10-05T02:24:27.175Z,4162.7
2022-10-05T02:30:02.160Z,4161.2
2022-10-05T02:35:39.987Z,4160.4
2022-10-05T02:41:36.120Z,4159.2
2022-10-05T02:47:10.858Z,4158.5
2022-10-05T02:53:29.640Z,4161.5
2022-10-05T02:59:14.101Z,4159.9
2022-10-05T03:05:11.685Z,4160.4
2022-10-05T03:10:50.678Z,4161.4
2022-10-05T03:16:27.034Z,4159.4
2022-10-05T03:22:02.129Z,4157.5
2022-10-05T03:28:42.198Z,4159.9
2022-10-05T03:34:26.406Z,4159.7
2022-10-05T03:40:22.770Z,4157.5
2022-10-05T03:46:07.146Z,4157.2
2022-10-05T03:51:42.198Z,4158.5
2022-10-05T03:57:19.905Z,4156.5
2022-10-05T04:02:55.889Z,4154.5
2022-10-05T04:09:13.862Z,4156.8
2022-10-05T04:14:50.161Z,4153.2
2022-10-05T04:20:28.899Z,4156.8
2022-10-05T04:26:13.062Z,4155
2022-10-05T04:31:48.848Z,4153.3
2022-10-05T04:37:34.686Z,4155.7
2022-10-05T04:43:09.812Z,4156
2022-10-05T04:49:05.509Z,4152.2
2022-10-05T04:54:44.173Z,4152.7
2022-10-05T05:01:05.994Z,4151.3
2022-10-05T05:06:41.098Z,4150.6
2022-10-05T05:12:24.988Z,4151.7
2022-10-05T05:18:09.147Z,4148.8
2022-10-05T05:23:44.045Z,4152.5
2022-10-05T05:29:20.145Z,4152.3
2022-10-05T05:35:01.724Z,4149.6
2022-10-05T05:40:57.628Z,4148.8
2022-10-05T05:47:25.592Z,4149.3
2022-10-05T05:53:01.082Z,4149.1
2022-10-05T05:58:58.419Z,4151.5
2022-10-05T06:04:33.976Z,4150.3
2022-10-05T06:10:45.765Z,4148.6
2022-10-05T06:16:22.291Z,4148.1
2022-10-05T06:22:03.311Z,4146.8
2022-10-05T06:27:38.179Z,4152.2
2022-10-05T06:33:16.735Z,4158.9
2022-10-05T06:38:53.414Z,4156.7
2022-10-05T06:44:34.753Z,4160
2022-10-05T06:50:24.006Z,4160.2
2022-10-05T06:55:59.956Z,4167.6
2022-10-05T07:01:56.694Z,4161.7
2022-10-05T07:08:06.570Z,4171.3
2022-10-05T07:13:41.944Z,4181
2022-10-05T07:19:16.878Z,4192.2
2022-10-05T07:24:53.038Z,4177.8
2022-10-05T07:30:28.080Z,4182.6
2022-10-05T07:36:04.914Z,4199.2
2022-10-05T07:41:39.722Z,4195.2
2022-10-05T07:47:14.834Z,4206.9
2022-10-05T07:52:50.032Z,4197.9
2022-10-05T07:58:25.218Z,4195.5
2022-10-05T08:04:00.344Z,4203.4
2022-10-05T08:09:36.797Z,4206.4
2022-10-05T08:15:11.647Z,4212
2022-10-05T08:20:46.535Z,4217.6
2022-10-05T08:26:21.666Z,4201.2
2022-10-05T08:31:57.891Z,4203.1
2022-10-05T08:37:33.360Z,4222.2
2022-10-05T08:43:09.911Z,4211
2022-10-05T08:48:45.141Z,4211.5
2022-10-05T08:54:20.071Z,4204.8
2022-10-05T08:59:59.515Z,4216.3
2022-10-05T09:05:35.631Z,4215.1
2022-10-05T09:11:32.490Z,4216
2022-10-05T09:17:05.316Z,4212.6
2022-10-05T09:22:40.239Z,4222.3
2022-10-05T09:28:16.271Z,4211
2022-10-05T09:33:52.072Z,4214.1
2022-10-05T09:39:36.803Z,4223.8
2022-10-05T09:45:11.854Z,4213.6
2022-10-05T09:50:47.280Z,4219.5
2022-10-05T09:56:22.901Z,4227.5
2022-10-05T10:02:01.351Z,4216.6
2022-10-05T10:08:12.509Z,4227.7
2022-10-05T10:14:09.614Z,4203.4
2022-10-05T10:19:43.017Z,4218.8
2022-10-05T10:25:19.830Z,4214.6
2022-10-05T10:30:56.217Z,4214.5
2022-10-05T10:36:31.589Z,4224.2
2022-10-05T10:42:08.549Z,4228
2022-10-05T10:47:43.916Z,4226.2
2022-10-05T10:53:19.171Z,4226.7
2022-10-05T10:58:54.563Z,4226.4
2022-10-05T11:04:30.709Z,4221.5
2022-10-05T11:10:09.701Z,4215.8
2022-10-05T11:15:47.032Z,4226
2022-10-05T11:21:22.219Z,4218.2
2022-10-05T11:26:57.370Z,4227.7
2022-10-05T11:32:34.975Z,4216.6
2022-10-05T11:38:10.031Z,4219.3
2022-10-05T11:43:44.997Z,4220.5
2022-10-05T11:49:20.487Z,4223.8
2022-10-05T11:55:13.567Z,4227
2022-10-05T12:00:50.416Z,4228.7
2022-10-05T12:06:25.659Z,4219.8
2022-10-05T12:12:22.592Z,4229.4
2022-10-05T12:17:59.607Z,4221
2022-10-05T12:23:35.720Z,4224.4
2022-10-05T12:29:22.548Z,4213.5
2022-10-05T12:35:29.928Z,4221.8
2022-10-05T12:41:19.543Z,4225.2
2022-10-05T12:47:03.640Z,4217.5
2022-10-05T12:52:39.906Z,4217.8
2022-10-05T12:58:18.763Z,4226.5
2022-10-05T13:04:21.952Z,4224.7
2022-10-05T13:10:01.129Z,4219.8
2022-10-05T13:15:37.026Z,4228.7
2022-10-05T13:21:11.879Z,4219.3
2022-10-05T13:27:00.094Z,4228.9
2022-10-05T13:32:35.700Z,4220.7
2022-10-05T13:38:11.666Z,4225.2
2022-10-05T13:43:46.573Z,4224.7
2022-10-05T13:49:51.528Z,4213.5
2022-10-05T13:56:01.182Z,4223.3
2022-10-05T14:01:49.594Z,4215.5
2022-10-05T14:07:25.118Z,4226.2
2022-10-05T14:13:22.152Z,4226.4
2022-10-05T14:18:56.073Z,4222.3
2022-10-05T14:24:55.604Z,4221.8
2022-10-05T14:30:30.913Z,4229.7
2022-10-05T14:36:12.238Z,4232.6
2022-10-05T14:42:34.010Z,4228
2022-10-05T14:48:23.888Z,4226.9
2022-10-05T14:54:01.016Z,4223.8
2022-10-05T14:59:42.464Z,4226.5
2022-10-05T15:05:17.217Z,4224
2022-10-05T15:11:14.005Z,4222.5
2022-10-05T15:16:53.291Z,4217.1
2022-10-05T15:22:28.148Z,4230.7
2022-10-05T15:28:04.590Z,4220.8
2022-10-05T15:33:52.130Z,4215.3
2022-10-05T15:39:28.151Z,4213.5
2022-10-05T15:45:44.664Z,4209.8
2022-10-05T15:51:20.093Z,4209.4
2022-10-05T15:56:56.792Z,4209.4
2022-10-05T16:02:34.267Z,4210.4
2022-10-05T16:08:14.557Z,4206.9
2022-10-05T16:14:10.987Z,4205.1
2022-10-05T16:20:04.705Z,4204.6
2022-10-05T16:25:43.258Z,4208.6
2022-10-05T16:31:28.836Z,4205.8
2022-10-05T16:37:07.901Z,4206.9
2022-10-05T16:42:46.019Z,4205.9
2022-10-05T16:48:22.983Z,4206.4
2022-10-05T16:54:19.651Z,4207.8
2022-10-05T17:00:00.598Z,4204.6
2022-10-05T17:05:43.985Z,4204.4
2022-10-05T17:11:18.901Z,4201.2
2022-10-05T17:16:55.040Z,4201.7
2022-10-05T17:22:30.595Z,4203.2
2022-10-05T17:28:12.500Z,4202.1
2022-10-05T17:33:47.521Z,4202.1
2022-10-05T17:39:22.344Z,4198.7
2022-10-05T17:44:57.107Z,4200.1
2022-10-05T17:50:32.199Z,4200.4
2022-10-05T17:56:07.042Z,4197.7
2022-10-05T18:01:42.371Z,4198.1
2022-10-05T18:07:18.612Z,4199.6
2022-10-05T18:12:53.478Z,4198.7
2022-10-05T18:18:29.016Z,4197
2022-10-05T18:24:04.254Z,4198.1
2022-10-05T18:29:38.928Z,4198.7
2022-10-05T18:35:14.112Z,4198.7
2022-10-05T18:40:50.166Z,4197
2022-10-05T18:46:26.079Z,4197.4
2022-10-05T18:52:04.816Z,4196.7
2022-10-05T18:57:40.219Z,4195
2022-10-05T19:03:15.073Z,4196.5
2022-10-05T19:08:54.092Z,4198.2
2022-10-05T19:14:29.199Z,4195.2
2022-10-05T19:20:04.554Z,4193.9
2022-10-05T19:25:39.351Z,4195.2
2022-10-05T19:31:16.775Z,4194.4
2022-10-05T19:36:51.796Z,4192.7
2022-10-05T19:42:26.848Z,4194.5
2022-10-05T19:48:02.557Z,4194
2022-10-05T19:53:46.521Z,4194.9
2022-10-05T19:59:21.653Z,4190.3
2022-10-05T20:04:57.245Z,4192.9
2022-10-05T20:10:33.431Z,4191
2022-10-05T20:16:09.872Z,4193.5
2022-10-05T20:22:06.095Z,4191
2022-10-05T20:27:40.984Z,4190.8
2022-10-05T20:33:19.206Z,4190.2
2022-10-05T20:39:03.841Z,4191.9
2022-10-05T20:44:39.615Z,4190.2
2022-10-05T20:50:14.434Z,4190.9
2022-10-05T20:55:49.515Z,4191.5
2022-10-05T21:01:25.125Z,4190
2022-10-05T21:07:00.018Z,4188.2
2022-10-05T21:12:36.796Z,4189.3
2022-10-05T21:18:11.851Z,4188
2022-10-05T21:23:46.785Z,4187
2022-10-05T21:29:22.012Z,4188.3
2022-10-05T21:35:01.222Z,4189.7
2022-10-05T21:40:36.166Z,4184.5
2022-10-05T21:46:18.013Z,4189.8
2022-10-05T21:51:55.988Z,4187
2022-10-05T21:57:30.880Z,4185
2022-10-05T22:03:06.373Z,4185.3
2022-10-05T22:08:41.334Z,4185.2
2022-10-05T22:14:17.250Z,4186.5
2022-10-05T22:19:52.285Z,4184.3
2022-10-05T22:25:27.268Z,4184.3
2022-10-05T22:31:05.465Z,4182.5
2022-10-05T22:36:58.829Z,4181
2022-10-05T22:42:36.847Z,4182.8
2022-10-05T22:48:14.612Z,4183.1
2022-10-05T22:53:51.944Z,4182.3
2022-10-05T22:59:26.733Z,4179.6
2022-10-05T23:05:07.558Z,4180.1
2022-10-05T23:10:49.245Z,4179.8
2022-10-05T23:16:24.943Z,4180.6
2022-10-05T23:21:59.914Z,4179
2022-10-05T23:27:35.857Z,4181
2022-10-05T23:33:10.799Z,4179.5
2022-10-05T23:38:46.184Z,4176.6
2022-10-05T23:44:21.124Z,4179
2022-10-05T23:49:55.790Z,4178.8
2022-10-05T23:55:30.837Z,4178.8
